CEB4707 RPVI-RPMD
Flight info
| Callsign | CEB4707 |
|---|---|
| Flight time | 0h 54m |
| Altitude | 33000 |
| Route | DOPLI3B DOPLI W7 LUMVI W6 LINAO LINAO2P |
| Aircraft | A21N/M-SDE3FGHIRWY/LB1 |
Departure
| Time | 2026-04-26 23:59 |
|---|---|
| Airport | Iloilo International Airport (RPVI) |
Arrival
| Time | 2026-04-27 00:54 |
|---|---|
| Airport | Francisco Bangoy International Airport (RPMD) |
| Time | Latitude | Longitude | Altitude | Speed | Heading |
|---|---|---|---|---|---|
| 2026-04-26 23:38 | 10.83165 | 122.49659 | 175 ft | 0 kts | 110° |
| 2026-04-26 23:47 | 10.83168 | 122.49651 | 175 ft | 2 kts | 110° |
| 2026-04-26 23:47 | 10.83173 | 122.49636 | 175 ft | 2 kts | 110° |
| 2026-04-26 23:47 | 10.83175 | 122.49631 | 175 ft | 0 kts | 110° |
| 2026-04-26 23:52 | 10.83174 | 122.49634 | 175 ft | 0 kts | 121° |
| 2026-04-26 23:52 | 10.83169 | 122.49635 | 175 ft | 1 kts | 180° |
| 2026-04-26 23:53 | 10.83162 | 122.49624 | 175 ft | 3 kts | 249° |
| 2026-04-26 23:53 | 10.83148 | 122.49583 | 175 ft | 6 kts | 241° |
| 2026-04-26 23:53 | 10.83107 | 122.49551 | 175 ft | 7 kts | 204° |
| 2026-04-26 23:53 | 10.83054 | 122.49531 | 175 ft | 8 kts | 204° |
| 2026-04-26 23:54 | 10.83029 | 122.49480 | 175 ft | 9 kts | 279° |
| 2026-04-26 23:54 | 10.83050 | 122.49420 | 175 ft | 9 kts | 291° |
| 2026-04-26 23:54 | 10.83065 | 122.49377 | 175 ft | 3 kts | 290° |
| 2026-04-26 23:54 | 10.83067 | 122.49372 | 175 ft | 0 kts | 289° |
| 2026-04-26 23:55 | 10.83075 | 122.49349 | 176 ft | 7 kts | 290° |
| 2026-04-26 23:55 | 10.83092 | 122.49286 | 176 ft | 10 kts | 266° |
| 2026-04-26 23:55 | 10.83044 | 122.49240 | 176 ft | 10 kts | 199° |
| 2026-04-26 23:56 | 10.82972 | 122.49213 | 176 ft | 12 kts | 202° |
| 2026-04-26 23:56 | 10.82890 | 122.49182 | 176 ft | 12 kts | 200° |
| 2026-04-26 23:56 | 10.82846 | 122.49164 | 176 ft | 12 kts | 200° |
| 2026-04-26 23:56 | 10.82760 | 122.49133 | 176 ft | 13 kts | 199° |
| 2026-04-26 23:57 | 10.82672 | 122.49101 | 176 ft | 13 kts | 199° |
| 2026-04-26 23:57 | 10.82581 | 122.49070 | 176 ft | 13 kts | 199° |
| 2026-04-26 23:57 | 10.82487 | 122.49037 | 176 ft | 14 kts | 199° |
| 2026-04-26 23:57 | 10.82394 | 122.49002 | 176 ft | 14 kts | 201° |
| 2026-04-26 23:58 | 10.82318 | 122.48985 | 176 ft | 10 kts | 181° |
| 2026-04-26 23:58 | 10.82260 | 122.48981 | 176 ft | 7 kts | 203° |
| 2026-04-26 23:58 | 10.82251 | 122.48953 | 176 ft | 2 kts | 312° |
| 2026-04-26 23:58 | 10.82277 | 122.48955 | 176 ft | 4 kts | 19° |
| 2026-04-26 23:59 | 10.82389 | 122.48998 | 176 ft | 47 kts | 21° |
| 2026-04-26 23:59 | 10.82944 | 122.49205 | 176 ft | 118 kts | 20° |
| 2026-04-26 23:59 | 10.83895 | 122.49564 | 264 ft | 163 kts | 22° |
| 2026-04-26 23:59 | 10.84939 | 122.49950 | 966 ft | 156 kts | 21° |
| 2026-04-27 00:00 | 10.85953 | 122.50289 | 1630 ft | 156 kts | 20° |
| 2026-04-27 00:00 | 10.86988 | 122.50624 | 2141 ft | 159 kts | 20° |
| 2026-04-27 00:00 | 10.88112 | 122.50984 | 2413 ft | 175 kts | 20° |
| 2026-04-27 00:00 | 10.89230 | 122.51559 | 2695 ft | 187 kts | 46° |
| 2026-04-27 00:01 | 10.89820 | 122.52760 | 2985 ft | 200 kts | 82° |
| 2026-04-27 00:01 | 10.89525 | 122.54185 | 3259 ft | 220 kts | 121° |
| 2026-04-27 00:01 | 10.88282 | 122.55201 | 3535 ft | 244 kts | 153° |
| 2026-04-27 00:01 | 10.86709 | 122.55978 | 3943 ft | 257 kts | 142° |
| 2026-04-27 00:02 | 10.85315 | 122.57178 | 4459 ft | 266 kts | 134° |
| 2026-04-27 00:02 | 10.83960 | 122.58473 | 5168 ft | 268 kts | 134° |
| 2026-04-27 00:02 | 10.82584 | 122.59737 | 5865 ft | 270 kts | 136° |
| 2026-04-27 00:02 | 10.81168 | 122.60979 | 6536 ft | 272 kts | 137° |
| 2026-04-27 00:03 | 10.79711 | 122.62215 | 7178 ft | 275 kts | 138° |
| 2026-04-27 00:03 | 10.78224 | 122.63451 | 7791 ft | 278 kts | 138° |
| 2026-04-27 00:03 | 10.76696 | 122.64702 | 8391 ft | 282 kts | 139° |
| 2026-04-27 00:03 | 10.75155 | 122.65952 | 8978 ft | 285 kts | 139° |
| 2026-04-27 00:04 | 10.73599 | 122.67207 | 9562 ft | 288 kts | 139° |
| 2026-04-27 00:04 | 10.72016 | 122.68481 | 10134 ft | 291 kts | 140° |
| 2026-04-27 00:04 | 10.70417 | 122.69765 | 10508 ft | 301 kts | 140° |
| 2026-04-27 00:04 | 10.68717 | 122.71128 | 10766 ft | 315 kts | 140° |
| 2026-04-27 00:05 | 10.66981 | 122.72517 | 11182 ft | 322 kts | 140° |
| 2026-04-27 00:05 | 10.65205 | 122.73937 | 11723 ft | 325 kts | 140° |
| 2026-04-27 00:05 | 10.63426 | 122.75360 | 12259 ft | 327 kts | 140° |
| 2026-04-27 00:05 | 10.61617 | 122.76807 | 12775 ft | 329 kts | 140° |
| 2026-04-27 00:06 | 10.59819 | 122.78243 | 13282 ft | 332 kts | 140° |
| 2026-04-27 00:06 | 10.58001 | 122.79694 | 13771 ft | 334 kts | 141° |
| 2026-04-27 00:06 | 10.56145 | 122.81177 | 14227 ft | 338 kts | 140° |
| 2026-04-27 00:06 | 10.54301 | 122.82649 | 14680 ft | 340 kts | 140° |
| 2026-04-27 00:07 | 10.52425 | 122.84147 | 15129 ft | 343 kts | 140° |
| 2026-04-27 00:07 | 10.50546 | 122.85648 | 15558 ft | 346 kts | 140° |
| 2026-04-27 00:07 | 10.48653 | 122.87160 | 15971 ft | 349 kts | 140° |
| 2026-04-27 00:07 | 10.46730 | 122.88695 | 16372 ft | 352 kts | 140° |
| 2026-04-27 00:08 | 10.44793 | 122.90242 | 16782 ft | 355 kts | 140° |
| 2026-04-27 00:08 | 10.42847 | 122.91795 | 17184 ft | 357 kts | 140° |
| 2026-04-27 00:08 | 10.40889 | 122.93361 | 17581 ft | 360 kts | 140° |
| 2026-04-27 00:08 | 10.38918 | 122.94936 | 17971 ft | 362 kts | 140° |
| 2026-04-27 00:09 | 10.36910 | 122.96538 | 18361 ft | 364 kts | 140° |
| 2026-04-27 00:09 | 10.34922 | 122.98125 | 18732 ft | 366 kts | 140° |
| 2026-04-27 00:09 | 10.32925 | 122.99719 | 19087 ft | 369 kts | 140° |
| 2026-04-27 00:09 | 10.30856 | 123.01369 | 19278 ft | 377 kts | 140° |
| 2026-04-27 00:10 | 10.28781 | 123.03024 | 19425 ft | 385 kts | 140° |
| 2026-04-27 00:10 | 10.26646 | 123.04727 | 19577 ft | 394 kts | 140° |
| 2026-04-27 00:10 | 10.24461 | 123.06471 | 19725 ft | 402 kts | 140° |
| 2026-04-27 00:10 | 10.22212 | 123.08262 | 19868 ft | 409 kts | 140° |
| 2026-04-27 00:11 | 10.19964 | 123.10054 | 20051 ft | 415 kts | 140° |
| 2026-04-27 00:11 | 10.17696 | 123.11860 | 20641 ft | 408 kts | 141° |
| 2026-04-27 00:11 | 10.15480 | 123.13624 | 21261 ft | 401 kts | 141° |
| 2026-04-27 00:11 | 10.13282 | 123.15376 | 21624 ft | 401 kts | 141° |
| 2026-04-27 00:12 | 10.11095 | 123.17118 | 21901 ft | 404 kts | 141° |
| 2026-04-27 00:12 | 10.08872 | 123.18888 | 22182 ft | 406 kts | 141° |
| 2026-04-27 00:12 | 10.06626 | 123.20675 | 22472 ft | 408 kts | 141° |
| 2026-04-27 00:12 | 10.04383 | 123.22460 | 22762 ft | 410 kts | 141° |
| 2026-04-27 00:13 | 10.02150 | 123.24237 | 23053 ft | 411 kts | 141° |
| 2026-04-27 00:13 | 9.99869 | 123.26053 | 23344 ft | 413 kts | 141° |
| 2026-04-27 00:13 | 9.97624 | 123.27840 | 23621 ft | 415 kts | 141° |
| 2026-04-27 00:13 | 9.95321 | 123.29673 | 23898 ft | 417 kts | 141° |
| 2026-04-27 00:14 | 9.93013 | 123.31508 | 24180 ft | 418 kts | 141° |
| 2026-04-27 00:14 | 9.90732 | 123.33322 | 24449 ft | 420 kts | 141° |
| 2026-04-27 00:14 | 9.88422 | 123.35159 | 24718 ft | 422 kts | 141° |
| 2026-04-27 00:14 | 9.86088 | 123.37015 | 24984 ft | 423 kts | 141° |
| 2026-04-27 00:15 | 9.83773 | 123.38856 | 25241 ft | 425 kts | 141° |
| 2026-04-27 00:15 | 9.81444 | 123.40707 | 25505 ft | 426 kts | 141° |
| 2026-04-27 00:15 | 9.79071 | 123.42593 | 25772 ft | 427 kts | 141° |
| 2026-04-27 00:15 | 9.76741 | 123.44445 | 26026 ft | 428 kts | 142° |
| 2026-04-27 00:16 | 9.74391 | 123.46312 | 26278 ft | 430 kts | 142° |
| 2026-04-27 00:16 | 9.72001 | 123.48211 | 26523 ft | 431 kts | 141° |
| 2026-04-27 00:16 | 9.69631 | 123.50095 | 26758 ft | 432 kts | 141° |
| 2026-04-27 00:16 | 9.67274 | 123.51969 | 26992 ft | 434 kts | 141° |
| 2026-04-27 00:17 | 9.64879 | 123.53872 | 27230 ft | 435 kts | 142° |
| 2026-04-27 00:17 | 9.62502 | 123.55760 | 27449 ft | 436 kts | 142° |
| 2026-04-27 00:17 | 9.60099 | 123.57686 | 27652 ft | 438 kts | 141° |
| 2026-04-27 00:17 | 9.57745 | 123.59703 | 27864 ft | 440 kts | 139° |
| 2026-04-27 00:18 | 9.55421 | 123.61725 | 28075 ft | 442 kts | 139° |
| 2026-04-27 00:18 | 9.53107 | 123.63747 | 28303 ft | 443 kts | 139° |
| 2026-04-27 00:18 | 9.50737 | 123.65820 | 28522 ft | 444 kts | 140° |
| 2026-04-27 00:18 | 9.48400 | 123.67864 | 28728 ft | 446 kts | 140° |
| 2026-04-27 00:19 | 9.46052 | 123.69915 | 28942 ft | 447 kts | 140° |
| 2026-04-27 00:19 | 9.43691 | 123.71978 | 29171 ft | 448 kts | 139° |
| 2026-04-27 00:19 | 9.41332 | 123.74040 | 29399 ft | 449 kts | 139° |
| 2026-04-27 00:19 | 9.38967 | 123.76105 | 29615 ft | 450 kts | 139° |
| 2026-04-27 00:20 | 9.36595 | 123.78176 | 29822 ft | 451 kts | 139° |
| 2026-04-27 00:20 | 9.34196 | 123.80264 | 30029 ft | 453 kts | 139° |
| 2026-04-27 00:20 | 9.31825 | 123.82326 | 30230 ft | 454 kts | 139° |
| 2026-04-27 00:20 | 9.29416 | 123.84422 | 30477 ft | 454 kts | 139° |
| 2026-04-27 00:21 | 9.27011 | 123.86520 | 30763 ft | 453 kts | 139° |
| 2026-04-27 00:21 | 9.24659 | 123.88572 | 31047 ft | 452 kts | 139° |
| 2026-04-27 00:21 | 9.22246 | 123.90677 | 31306 ft | 452 kts | 139° |
| 2026-04-27 00:21 | 9.19866 | 123.92754 | 31511 ft | 454 kts | 139° |
| 2026-04-27 00:22 | 9.17475 | 123.94840 | 31714 ft | 455 kts | 139° |
| 2026-04-27 00:22 | 9.15081 | 123.96928 | 31932 ft | 455 kts | 139° |
| 2026-04-27 00:22 | 9.12684 | 123.99020 | 32157 ft | 456 kts | 139° |
| 2026-04-27 00:22 | 9.10278 | 124.01120 | 32378 ft | 456 kts | 139° |
| 2026-04-27 00:23 | 9.07858 | 124.03233 | 32581 ft | 457 kts | 139° |
| 2026-04-27 00:23 | 9.05463 | 124.05321 | 32795 ft | 458 kts | 139° |
| 2026-04-27 00:23 | 9.00591 | 124.09560 | 32880 ft | 459 kts | 139° |
| 2026-04-27 00:24 | 8.95753 | 124.13758 | 32884 ft | 460 kts | 139° |
| 2026-04-27 00:24 | 8.90888 | 124.17986 | 32886 ft | 460 kts | 139° |
| 2026-04-27 00:25 | 8.86025 | 124.22217 | 32890 ft | 460 kts | 139° |
| 2026-04-27 00:25 | 8.81150 | 124.26457 | 32888 ft | 460 kts | 139° |
| 2026-04-27 00:26 | 8.76333 | 124.30647 | 32892 ft | 460 kts | 139° |
| 2026-04-27 00:26 | 8.71454 | 124.34888 | 32892 ft | 460 kts | 139° |
| 2026-04-27 00:27 | 8.66614 | 124.39095 | 32897 ft | 460 kts | 139° |
| 2026-04-27 00:27 | 8.61779 | 124.43359 | 32898 ft | 460 kts | 134° |
| 2026-04-27 00:28 | 8.58007 | 124.48614 | 32918 ft | 460 kts | 120° |
| 2026-04-27 00:28 | 8.54885 | 124.54232 | 32916 ft | 460 kts | 119° |
| 2026-04-27 00:29 | 8.51759 | 124.59866 | 32919 ft | 460 kts | 119° |
| 2026-04-27 00:29 | 8.48613 | 124.65494 | 32922 ft | 459 kts | 119° |
| 2026-04-27 00:30 | 8.45479 | 124.71079 | 32927 ft | 459 kts | 119° |
| 2026-04-27 00:30 | 8.42306 | 124.76723 | 32943 ft | 460 kts | 119° |
| 2026-04-27 00:31 | 8.39157 | 124.82327 | 32826 ft | 460 kts | 119° |
| 2026-04-27 00:31 | 8.37601 | 124.85094 | 32428 ft | 458 kts | 119° |
| 2026-04-27 00:31 | 8.36027 | 124.87894 | 31890 ft | 455 kts | 119° |
| 2026-04-27 00:32 | 8.34472 | 124.90659 | 31267 ft | 453 kts | 119° |
| 2026-04-27 00:32 | 8.32919 | 124.93420 | 30580 ft | 453 kts | 119° |
| 2026-04-27 00:32 | 8.31369 | 124.96174 | 29940 ft | 452 kts | 119° |
| 2026-04-27 00:32 | 8.29831 | 124.98906 | 29505 ft | 446 kts | 119° |
| 2026-04-27 00:33 | 8.28316 | 125.01595 | 29075 ft | 440 kts | 119° |
| 2026-04-27 00:33 | 8.26814 | 125.04262 | 28616 ft | 435 kts | 119° |
| 2026-04-27 00:33 | 8.25333 | 125.06891 | 28158 ft | 431 kts | 119° |
| 2026-04-27 00:33 | 8.23864 | 125.09497 | 27694 ft | 427 kts | 119° |
| 2026-04-27 00:34 | 8.22390 | 125.12112 | 27200 ft | 424 kts | 119° |
| 2026-04-27 00:34 | 8.20945 | 125.14677 | 26691 ft | 421 kts | 119° |
| 2026-04-27 00:34 | 8.19511 | 125.17221 | 26207 ft | 418 kts | 119° |
| 2026-04-27 00:34 | 8.18071 | 125.19775 | 25715 ft | 416 kts | 119° |
| 2026-04-27 00:35 | 8.16651 | 125.22295 | 25231 ft | 413 kts | 119° |
| 2026-04-27 00:35 | 8.15238 | 125.24801 | 24751 ft | 410 kts | 119° |
| 2026-04-27 00:35 | 8.13830 | 125.27299 | 24272 ft | 407 kts | 119° |
| 2026-04-27 00:35 | 8.12432 | 125.29776 | 23799 ft | 405 kts | 118° |
| 2026-04-27 00:36 | 8.11049 | 125.32229 | 23329 ft | 402 kts | 118° |
| 2026-04-27 00:36 | 8.09673 | 125.34668 | 22858 ft | 400 kts | 118° |
| 2026-04-27 00:36 | 8.08314 | 125.37077 | 22383 ft | 398 kts | 118° |
| 2026-04-27 00:36 | 8.06958 | 125.39483 | 21917 ft | 396 kts | 118° |
| 2026-04-27 00:37 | 8.05577 | 125.41933 | 21446 ft | 394 kts | 118° |
| 2026-04-27 00:37 | 8.04236 | 125.44310 | 20972 ft | 393 kts | 118° |
| 2026-04-27 00:37 | 8.02880 | 125.46713 | 20493 ft | 391 kts | 118° |
| 2026-04-27 00:37 | 8.01536 | 125.49094 | 20008 ft | 390 kts | 118° |
| 2026-04-27 00:38 | 8.00207 | 125.51446 | 19503 ft | 389 kts | 118° |
| 2026-04-27 00:38 | 7.98754 | 125.53745 | 18974 ft | 390 kts | 129° |
| 2026-04-27 00:38 | 7.96643 | 125.55460 | 18460 ft | 392 kts | 150° |
| 2026-04-27 00:38 | 7.94038 | 125.56286 | 17906 ft | 395 kts | 172° |
| 2026-04-27 00:39 | 7.91291 | 125.56105 | 17381 ft | 395 kts | 193° |
| 2026-04-27 00:39 | 7.88656 | 125.55331 | 16901 ft | 394 kts | 196° |
| 2026-04-27 00:39 | 7.86015 | 125.54529 | 16424 ft | 392 kts | 196° |
| 2026-04-27 00:39 | 7.83405 | 125.53744 | 15958 ft | 389 kts | 195° |
| 2026-04-27 00:40 | 7.80809 | 125.52972 | 15511 ft | 386 kts | 195° |
| 2026-04-27 00:40 | 7.78252 | 125.52216 | 15048 ft | 383 kts | 195° |
| 2026-04-27 00:40 | 7.75690 | 125.51463 | 14608 ft | 379 kts | 195° |
| 2026-04-27 00:40 | 7.73175 | 125.50726 | 14158 ft | 376 kts | 195° |
| 2026-04-27 00:41 | 7.70657 | 125.49986 | 13743 ft | 372 kts | 195° |
| 2026-04-27 00:41 | 7.68204 | 125.49267 | 13476 ft | 363 kts | 195° |
| 2026-04-27 00:41 | 7.65770 | 125.48553 | 13095 ft | 359 kts | 195° |
| 2026-04-27 00:41 | 7.63363 | 125.47849 | 12638 ft | 356 kts | 195° |
| 2026-04-27 00:42 | 7.60984 | 125.47151 | 12196 ft | 354 kts | 195° |
| 2026-04-27 00:42 | 7.58636 | 125.46464 | 11756 ft | 351 kts | 195° |
| 2026-04-27 00:42 | 7.56288 | 125.45776 | 11334 ft | 348 kts | 194° |
| 2026-04-27 00:42 | 7.53973 | 125.45098 | 10898 ft | 345 kts | 194° |
| 2026-04-27 00:43 | 7.51672 | 125.44424 | 10610 ft | 337 kts | 194° |
| 2026-04-27 00:43 | 7.49449 | 125.43774 | 10429 ft | 326 kts | 194° |
| 2026-04-27 00:43 | 7.47288 | 125.43141 | 10254 ft | 316 kts | 194° |
| 2026-04-27 00:43 | 7.45227 | 125.42539 | 10082 ft | 306 kts | 194° |
| 2026-04-27 00:44 | 7.43211 | 125.41949 | 9882 ft | 297 kts | 194° |
| 2026-04-27 00:44 | 7.41232 | 125.41371 | 9543 ft | 295 kts | 194° |
| 2026-04-27 00:44 | 7.39244 | 125.40791 | 9157 ft | 294 kts | 194° |
| 2026-04-27 00:44 | 7.37300 | 125.40223 | 8782 ft | 292 kts | 194° |
| 2026-04-27 00:45 | 7.35313 | 125.39666 | 8392 ft | 290 kts | 189° |
| 2026-04-27 00:45 | 7.33339 | 125.39523 | 8008 ft | 286 kts | 173° |
| 2026-04-27 00:45 | 7.31365 | 125.39841 | 7642 ft | 282 kts | 166° |
| 2026-04-27 00:45 | 7.29448 | 125.40261 | 7272 ft | 280 kts | 165° |
| 2026-04-27 00:46 | 7.27551 | 125.40685 | 6901 ft | 279 kts | 165° |
| 2026-04-27 00:46 | 7.25651 | 125.41102 | 6525 ft | 277 kts | 165° |
| 2026-04-27 00:46 | 7.23754 | 125.41509 | 6156 ft | 276 kts | 165° |
| 2026-04-27 00:46 | 7.21875 | 125.41911 | 5784 ft | 275 kts | 165° |
| 2026-04-27 00:47 | 7.20015 | 125.42306 | 5414 ft | 274 kts | 166° |
| 2026-04-27 00:47 | 7.18142 | 125.42703 | 5044 ft | 273 kts | 166° |
| 2026-04-27 00:47 | 7.16268 | 125.43098 | 4680 ft | 272 kts | 166° |
| 2026-04-27 00:47 | 7.14423 | 125.43488 | 4360 ft | 269 kts | 166° |
| 2026-04-27 00:48 | 7.12624 | 125.43864 | 4303 ft | 255 kts | 166° |
| 2026-04-27 00:48 | 7.10913 | 125.44224 | 4281 ft | 247 kts | 166° |
| 2026-04-27 00:48 | 7.09231 | 125.44579 | 4229 ft | 243 kts | 166° |
| 2026-04-27 00:48 | 7.07602 | 125.44933 | 4077 ft | 234 kts | 162° |
| 2026-04-27 00:49 | 7.06225 | 125.45705 | 3809 ft | 224 kts | 127° |
| 2026-04-27 00:49 | 7.05467 | 125.47015 | 3623 ft | 213 kts | 113° |
| 2026-04-27 00:49 | 7.04867 | 125.48364 | 3306 ft | 208 kts | 112° |
| 2026-04-27 00:49 | 7.04266 | 125.49661 | 2984 ft | 204 kts | 114° |
| 2026-04-27 00:50 | 7.03642 | 125.50924 | 2695 ft | 199 kts | 115° |
| 2026-04-27 00:50 | 7.03176 | 125.53440 | 2166 ft | 173 kts | 65° |
| 2026-04-27 00:50 | 7.03785 | 125.54400 | 2178 ft | 155 kts | 52° |
| 2026-04-27 00:51 | 7.04469 | 125.55210 | 2150 ft | 148 kts | 49° |
| 2026-04-27 00:51 | 7.05153 | 125.55982 | 1997 ft | 147 kts | 49° |
| 2026-04-27 00:51 | 7.05829 | 125.56754 | 1807 ft | 146 kts | 49° |
| 2026-04-27 00:51 | 7.06500 | 125.57529 | 1623 ft | 146 kts | 49° |
| 2026-04-27 00:52 | 7.07159 | 125.58298 | 1446 ft | 145 kts | 49° |
| 2026-04-27 00:52 | 7.07821 | 125.59071 | 1256 ft | 145 kts | 49° |
| 2026-04-27 00:52 | 7.08485 | 125.59846 | 1064 ft | 145 kts | 49° |
| 2026-04-27 00:52 | 7.09139 | 125.60605 | 877 ft | 144 kts | 49° |
| 2026-04-27 00:53 | 7.09801 | 125.61375 | 687 ft | 144 kts | 48° |
| 2026-04-27 00:53 | 7.10457 | 125.62138 | 496 ft | 143 kts | 48° |
| 2026-04-27 00:53 | 7.11103 | 125.62892 | 320 ft | 143 kts | 48° |
| 2026-04-27 00:53 | 7.11759 | 125.63660 | 138 ft | 143 kts | 48° |
| 2026-04-27 00:54 | 7.12359 | 125.64352 | 115 ft | 113 kts | 49° |
| 2026-04-27 00:54 | 7.12761 | 125.64821 | 114 ft | 64 kts | 48° |
| 2026-04-27 00:54 | 7.12936 | 125.65031 | 114 ft | 13 kts | 61° |
| 2026-04-27 00:54 | 7.12957 | 125.65070 | 114 ft | 1 kts | 2° |
| 2026-04-27 00:55 | 7.12960 | 125.65054 | 114 ft | 3 kts | 248° |
| 2026-04-27 00:55 | 7.12941 | 125.65030 | 114 ft | 4 kts | 230° |
| 2026-04-27 00:55 | 7.12917 | 125.65001 | 114 ft | 5 kts | 230° |
| 2026-04-27 00:55 | 7.12888 | 125.64965 | 114 ft | 6 kts | 236° |
| 2026-04-27 00:56 | 7.12887 | 125.64918 | 114 ft | 7 kts | 302° |
| 2026-04-27 00:56 | 7.12929 | 125.64879 | 114 ft | 8 kts | 320° |
| 2026-04-27 00:56 | 7.12976 | 125.64838 | 114 ft | 9 kts | 319° |
| 2026-04-27 00:56 | 7.13010 | 125.64797 | 114 ft | 5 kts | 288° |
| 2026-04-27 00:57 | 7.13004 | 125.64760 | 114 ft | 5 kts | 239° |
| 2026-04-27 00:57 | 7.12974 | 125.64724 | 114 ft | 7 kts | 230° |
| 2026-04-27 00:57 | 7.12941 | 125.64684 | 114 ft | 6 kts | 231° |
| 2026-04-27 00:57 | 7.12935 | 125.64653 | 114 ft | 5 kts | 298° |
| 2026-04-27 00:58 | 7.12962 | 125.64625 | 114 ft | 5 kts | 317° |
| 2026-04-27 00:58 | 7.12983 | 125.64606 | 114 ft | 2 kts | 319° |
| 2026-04-27 00:58 | 7.12988 | 125.64603 | 114 ft | 0 kts | 319° |